Terminal Aerodrome Forecast
Issued by NWS

Home | Current Version | Previous Version | Text Only | Print | Product List | Glossary On
Versions: 1 2 3 4 5 6 7 8 9 10 11 12 13
006
FTUS45 KABQ 202343
TAFGUP
TAF
KGUP 202343Z 2100/2124 26015G25KT P6SM VCSH BKN050
     FM210100 31010KT P6SM -SHRA BKN030
     FM210400 23006KT P6SM SCT045
     FM211500 33012KT P6SM SCT030
     FM211800 31015G25KT P6SM SKC=

USA.gov is the U.S. government's official web portal to all federal, state and local government web resources and services.